Time;durP1;ratioP1;P1;durP2;ratioP2;P2;SDS_P1;SDS_P2;PMS_P1;PMS_P2;Temp;Humidity;BMP_temperature;BMP_pressure;BME280_temperature;BME280_humidity;BME280_pressure;Samples;Min_cycle;Max_cycle;Signal;HPM_P1;HPM_P2
2021/09/27 00:03:41;;;;;;;14.73;6.10;;;;;;;;;;10443706;28;20045;-73
2021/09/27 00:08:44;;;;;;;18.30;6.22;;;;;;;;;;10440729;28;20120;-76
2021/09/27 00:13:50;;;;;;;15.50;6.30;;;;;;;;;;10439355;28;20126;-76
2021/09/27 00:18:54;;;;;;;12.70;5.95;;;;;;;;;;10443823;28;20136;-76
2021/09/27 00:23:57;;;;;;;12.93;5.78;;;;;;;;;;10433397;28;20118;-75
2021/09/27 00:29:00;;;;;;;12.82;6.15;;;;;;;;;;10440863;28;20098;-76
2021/09/27 00:34:06;;;;;;;10.80;4.78;;;;;;;;;;10441754;28;20087;-76
2021/09/27 00:39:09;;;;;;;13.77;5.65;;;;;;;;;;10440635;28;20405;-76
2021/09/27 00:44:12;;;;;;;13.35;6.00;;;;;;;;;;10441414;28;20045;-75
2021/09/27 00:49:16;;;;;;;8.23;3.75;;;;;;;;;;10442739;28;20451;-75
2021/09/27 00:54:21;;;;;;;15.63;5.95;;;;;;;;;;10442919;28;20102;-75
2021/09/27 00:59:25;;;;;;;12.25;5.25;;;;;;;;;;10443772;28;20044;-76
2021/09/27 01:04:29;;;;;;;12.30;5.18;;;;;;;;;;10431226;28;20092;-76
2021/09/27 01:09:36;;;;;;;14.60;5.38;;;;;;;;;;10445700;28;20059;-76
2021/09/27 01:14:46;;;;;;;11.40;4.25;;;;;;;;;;10442110;28;20040;-74
2021/09/27 01:20:13;;;;;;;15.82;5.68;;;;;;;;;;10440891;28;20136;-72
2021/09/27 01:25:47;;;;;;;13.48;5.40;;;;;;;;;;10439105;28;20095;-74
2021/09/27 01:31:24;;;;;;;12.52;5.78;;;;;;;;;;10441736;28;20418;-75
2021/09/27 01:36:32;;;;;;;15.73;6.40;;;;;;;;;;10424561;28;20118;-75
2021/09/27 01:41:38;;;;;;;14.13;6.00;;;;;;;;;;10442417;28;20102;-75
2021/09/27 01:46:47;;;;;;;11.90;5.38;;;;;;;;;;10440056;28;20029;-75
2021/09/27 01:51:54;;;;;;;13.68;5.68;;;;;;;;;;10435321;28;20041;-76
2021/09/27 01:57:02;;;;;;;15.55;6.13;;;;;;;;;;10442432;28;20045;-76
2021/09/27 02:02:08;;;;;;;14.30;6.13;;;;;;;;;;10437125;28;20453;-75
2021/09/27 02:07:15;;;;;;;16.88;7.38;;;;;;;;;;10441559;28;20048;-75
2021/09/27 02:12:23;;;;;;;18.55;7.10;;;;;;;;;;10429381;28;20358;-76
2021/09/27 02:17:29;;;;;;;16.98;6.53;;;;;;;;;;10438565;28;20083;-73
2021/09/27 02:22:41;;;;;;;20.30;7.65;;;;;;;;;;10437020;28;20099;-76
2021/09/27 02:27:46;;;;;;;15.90;5.93;;;;;;;;;;10436744;28;20048;-76
2021/09/27 02:32:54;;;;;;;23.77;7.60;;;;;;;;;;10438700;28;20121;-77
2021/09/27 02:38:02;;;;;;;17.67;7.25;;;;;;;;;;10440769;28;20061;-75
2021/09/27 02:43:07;;;;;;;18.00;7.13;;;;;;;;;;10437715;28;20053;-76
2021/09/27 02:48:14;;;;;;;21.55;8.45;;;;;;;;;;10438287;28;20112;-77
2021/09/27 02:53:20;;;;;;;16.48;6.88;;;;;;;;;;10438381;28;20041;-78
2021/09/27 02:58:26;;;;;;;17.77;7.35;;;;;;;;;;10437514;28;20041;-76
2021/09/27 03:03:40;;;;;;;21.00;7.40;;;;;;;;;;10441209;28;20037;-77
2021/09/27 03:09:03;;;;;;;17.73;7.35;;;;;;;;;;10447700;28;20095;-74
2021/09/27 03:14:12;;;;;;;17.17;6.93;;;;;;;;;;10437354;28;20048;-74
2021/09/27 03:19:26;;;;;;;17.55;6.43;;;;;;;;;;10445807;28;20318;-76
2021/09/27 03:24:36;;;;;;;15.93;6.53;;;;;;;;;;10446668;28;20052;-76
2021/09/27 03:29:44;;;;;;;19.38;7.15;;;;;;;;;;10444067;28;20400;-76
2021/09/27 03:34:50;;;;;;;13.48;5.70;;;;;;;;;;10447757;28;20037;-76
2021/09/27 03:40:00;;;;;;;17.92;7.72;;;;;;;;;;10442530;28;20489;-74
2021/09/27 03:45:06;;;;;;;15.55;6.60;;;;;;;;;;10444379;28;20055;-75
2021/09/27 03:50:12;;;;;;;17.40;6.63;;;;;;;;;;10439777;28;20083;-73
2021/09/27 03:55:18;;;;;;;14.23;6.18;;;;;;;;;;10446164;28;20089;-74
2021/09/27 04:00:24;;;;;;;18.02;6.45;;;;;;;;;;10446236;28;20075;-76
2021/09/27 04:05:31;;;;;;;15.77;6.47;;;;;;;;;;10443797;28;20045;-75
2021/09/27 04:10:38;;;;;;;14.50;6.45;;;;;;;;;;10444109;28;20041;-75
2021/09/27 04:15:55;;;;;;;15.65;6.63;;;;;;;;;;10434106;28;20045;-76
2021/09/27 04:21:03;;;;;;;15.60;5.72;;;;;;;;;;10442238;28;20487;-75
2021/09/27 04:26:11;;;;;;;15.50;6.07;;;;;;;;;;10441113;28;20072;-73
2021/09/27 04:31:18;;;;;;;14.95;6.07;;;;;;;;;;10459429;28;20136;-75
2021/09/27 04:36:22;;;;;;;12.80;5.32;;;;;;;;;;10440205;28;20489;-73
2021/09/27 04:41:39;;;;;;;12.88;5.78;;;;;;;;;;10442221;28;20037;-76
2021/09/27 04:46:45;;;;;;;15.40;6.20;;;;;;;;;;10424808;28;20065;-76
2021/09/27 04:52:04;;;;;;;12.75;5.38;;;;;;;;;;10439372;28;20142;-77
2021/09/27 04:57:15;;;;;;;14.60;5.68;;;;;;;;;;10441380;28;20083;-76
2021/09/27 05:02:34;;;;;;;15.10;5.97;;;;;;;;;;10440416;28;20111;-75
2021/09/27 05:07:45;;;;;;;15.05;6.10;;;;;;;;;;10440294;28;20139;-75
2021/09/27 05:13:04;;;;;;;14.32;6.05;;;;;;;;;;10436478;28;20065;-74
2021/09/27 05:18:15;;;;;;;19.77;7.13;;;;;;;;;;10438329;28;20077;-75
2021/09/27 05:23:20;;;;;;;15.25;5.97;;;;;;;;;;10438514;28;20073;-76
2021/09/27 05:28:34;;;;;;;14.38;5.88;;;;;;;;;;10434101;28;20041;-78
2021/09/27 05:33:43;;;;;;;13.93;6.28;;;;;;;;;;10435348;28;20112;-78
2021/09/27 05:38:51;;;;;;;17.10;6.97;;;;;;;;;;10442221;28;20072;-76
2021/09/27 05:44:01;;;;;;;15.23;5.90;;;;;;;;;;10439955;28;20041;-76
2021/09/27 05:49:07;;;;;;;13.68;5.75;;;;;;;;;;10439517;28;20041;-76
2021/09/27 05:54:14;;;;;;;15.52;6.70;;;;;;;;;;10434228;28;20077;-76
2021/09/27 05:59:20;;;;;;;16.20;5.90;;;;;;;;;;10432525;28;20124;-77
2021/09/27 06:04:26;;;;;;;12.02;5.70;;;;;;;;;;10432241;28;20381;-76
2021/09/27 06:09:37;;;;;;;10.32;4.53;;;;;;;;;;10436269;28;20060;-76
2021/09/27 06:14:40;;;;;;;13.52;4.90;;;;;;;;;;10429472;28;20402;-71
2021/09/27 06:19:47;;;;;;;9.80;4.10;;;;;;;;;;10428047;28;20578;-75
2021/09/27 06:24:57;;;;;;;13.05;5.38;;;;;;;;;;10427834;28;20098;-75
2021/09/27 06:30:07;;;;;;;11.38;4.75;;;;;;;;;;10431814;28;20142;-74
2021/09/27 06:35:14;;;;;;;10.90;4.88;;;;;;;;;;10435073;28;20044;-76
2021/09/27 06:40:16;;;;;;;11.48;4.82;;;;;;;;;;10438905;28;20152;-76
2021/09/27 06:45:19;;;;;;;10.38;4.07;;;;;;;;;;10440828;28;20144;-76
2021/09/27 06:50:24;;;;;;;7.78;3.72;;;;;;;;;;10441243;28;20114;-75
2021/09/27 06:55:27;;;;;;;8.23;4.20;;;;;;;;;;10440622;28;20107;-76
2021/09/27 07:00:31;;;;;;;10.23;4.82;;;;;;;;;;10436869;28;20112;-76
2021/09/27 07:05:35;;;;;;;8.98;4.13;;;;;;;;;;10441443;28;20135;-76
2021/09/27 07:10:38;;;;;;;9.55;4.90;;;;;;;;;;10440324;28;20086;-76
2021/09/27 07:15:40;;;;;;;;;;;;;;;;;;10441902;28;20091;-77
2021/09/27 07:20:46;;;;;;;9.10;4.72;;;;;;;;;;10442198;28;19931;-76
2021/09/27 07:25:48;;;;;;;13.02;5.80;;;;;;;;;;10444235;28;20045;-76
2021/09/27 07:30:51;;;;;;;7.03;3.58;;;;;;;;;;10440268;28;20056;-75
2021/09/27 07:35:56;;;;;;;8.27;3.67;;;;;;;;;;10443046;28;20045;-77
2021/09/27 07:40:59;;;;;;;6.18;3.75;;;;;;;;;;10442381;28;20041;-76
2021/09/27 07:46:02;;;;;;;10.18;4.38;;;;;;;;;;10439876;28;20041;-74
2021/09/27 07:51:06;;;;;;;8.70;4.20;;;;;;;;;;10442740;28;20085;-76
2021/09/27 07:56:09;;;;;;;5.90;4.20;;;;;;;;;;10451426;28;20102;-76
2021/09/27 08:01:13;;;;;;;6.43;4.10;;;;;;;;;;10452040;28;20045;-77
2021/09/27 08:06:17;;;;;;;7.57;4.50;;;;;;;;;;10445333;28;20052;-76
2021/09/27 08:11:20;;;;;;;7.57;4.68;;;;;;;;;;10443779;28;20565;-76
2021/09/27 08:16:23;;;;;;;9.93;5.05;;;;;;;;;;10437848;28;20147;-76
2021/09/27 08:21:27;;;;;;;8.35;4.47;;;;;;;;;;10435885;28;20381;-77
2021/09/27 08:26:30;;;;;;;9.35;5.13;;;;;;;;;;10439714;28;20076;-76
2021/09/27 08:31:33;;;;;;;8.00;5.32;;;;;;;;;;10438857;28;20048;-76
2021/09/27 08:36:38;;;;;;;6.97;4.60;;;;;;;;;;10433399;28;20453;-74
2021/09/27 08:41:47;;;;;;;9.68;5.53;;;;;;;;;;10441773;28;20083;-77
2021/09/27 08:46:53;;;;;;;8.43;5.30;;;;;;;;;;10440702;28;20456;-76
2021/09/27 08:51:57;;;;;;;7.00;5.10;;;;;;;;;;10445338;28;20049;-78
2021/09/27 08:57:05;;;;;;;7.03;4.78;;;;;;;;;;10440982;28;20123;-77
2021/09/27 09:02:11;;;;;;;6.60;4.85;;;;;;;;;;10441153;28;20048;-77
2021/09/27 09:07:21;;;;;;;8.88;5.32;;;;;;;;;;10438393;28;20066;-76
2021/09/27 09:12:30;;;;;;;7.72;4.55;;;;;;;;;;10443134;28;20067;-77
2021/09/27 09:17:34;;;;;;;6.00;4.95;;;;;;;;;;10441844;28;20505;-76
2021/09/27 09:22:41;;;;;;;7.10;5.00;;;;;;;;;;10435633;28;20051;-75
2021/09/27 09:27:45;;;;;;;7.30;5.03;;;;;;;;;;10431624;28;20416;-76
2021/09/27 09:32:52;;;;;;;6.68;4.70;;;;;;;;;;10437395;28;20076;-77
2021/09/27 09:38:03;;;;;;;6.88;4.70;;;;;;;;;;10437090;28;20051;-77
2021/09/27 09:43:08;;;;;;;9.75;4.55;;;;;;;;;;10436149;28;20041;-78
2021/09/27 09:48:16;;;;;;;9.15;5.60;;;;;;;;;;10437683;28;20069;-77
2021/09/27 09:53:25;;;;;;;6.28;4.93;;;;;;;;;;10432362;28;20129;-77
2021/09/27 09:58:39;;;;;;;9.98;4.80;;;;;;;;;;10441023;28;20080;-77
2021/09/27 10:03:44;;;;;;;8.05;4.97;;;;;;;;;;10443492;28;20431;-77
2021/09/27 10:08:54;;;;;;;7.25;4.97;;;;;;;;;;10437132;28;20450;-78
2021/09/27 10:13:57;;;;;;;6.97;4.40;;;;;;;;;;10437768;28;20259;-77
2021/09/27 10:19:13;;;;;;;8.73;5.38;;;;;;;;;;10440653;28;20044;-79
2021/09/27 10:24:20;;;;;;;13.68;5.70;;;;;;;;;;10435107;28;20076;-79
2021/09/27 10:29:26;;;;;;;7.95;4.78;;;;;;;;;;10440568;28;20143;-78
2021/09/27 10:34:31;;;;;;;8.73;5.32;;;;;;;;;;10435258;28;20037;-77
2021/09/27 10:39:36;;;;;;;7.75;5.13;;;;;;;;;;10434386;28;20041;-78
2021/09/27 10:44:41;;;;;;;8.25;4.95;;;;;;;;;;10439728;28;20041;-79
2021/09/27 10:49:46;;;;;;;6.47;4.70;;;;;;;;;;10436457;28;20095;-78
2021/09/27 10:54:58;;;;;;;9.70;6.22;;;;;;;;;;10437040;28;20083;-79
2021/09/27 11:00:06;;;;;;;6.07;3.38;;;;;;;;;;10429070;28;20075;-81
2021/09/27 11:05:14;;;;;;;6.05;4.78;;;;;;;;;;10440777;28;20041;-80
2021/09/27 11:10:23;;;;;;;5.38;4.15;;;;;;;;;;10430354;28;20287;-76
2021/09/27 11:15:27;;;;;;;7.75;4.55;;;;;;;;;;10434938;28;20034;-79
2021/09/27 11:20:44;;;;;;;10.07;5.07;;;;;;;;;;10431151;28;20126;-78
2021/09/27 11:25:50;;;;;;;7.97;5.43;;;;;;;;;;10434677;28;20501;-77
2021/09/27 11:31:06;;;;;;;6.10;4.47;;;;;;;;;;10434375;28;20497;-77
2021/09/27 11:36:23;;;;;;;7.05;5.25;;;;;;;;;;10441864;28;20102;-78
2021/09/27 11:41:32;;;;;;;7.05;4.75;;;;;;;;;;10445045;28;20041;-77
2021/09/27 11:46:47;;;;;;;9.90;7.22;;;;;;;;;;10448371;28;20037;-77
2021/09/27 11:52:03;;;;;;;5.85;4.57;;;;;;;;;;10441382;28;20037;-78
2021/09/27 11:57:13;;;;;;;6.22;4.90;;;;;;;;;;10446991;28;20049;-78
2021/09/27 12:02:25;;;;;;;6.95;5.00;;;;;;;;;;10437978;28;20045;-77
2021/09/27 12:07:30;;;;;;;8.60;5.55;;;;;;;;;;10444749;28;20049;-78
2021/09/27 12:12:39;;;;;;;6.30;4.60;;;;;;;;;;10439843;28;20053;-80
2021/09/27 12:17:44;;;;;;;10.25;6.10;;;;;;;;;;10448241;28;20041;-77
2021/09/27 12:22:48;;;;;;;7.80;4.90;;;;;;;;;;10452131;28;20044;-79
2021/09/27 12:27:55;;;;;;;7.32;4.88;;;;;;;;;;10437644;28;20514;-81
2021/09/27 12:33:00;;;;;;;7.60;4.80;;;;;;;;;;10440261;28;20621;-79
2021/09/27 12:38:03;;;;;;;6.60;4.95;;;;;;;;;;10444738;28;20068;-79
2021/09/27 12:43:12;;;;;;;8.93;5.38;;;;;;;;;;10443228;28;20535;-79
2021/09/27 12:48:18;;;;;;;7.43;4.57;;;;;;;;;;10443582;28;20369;-79
2021/09/27 12:53:24;;;;;;;6.25;4.47;;;;;;;;;;10444427;28;20393;-77
2021/09/27 12:58:33;;;;;;;8.48;4.90;;;;;;;;;;10445012;28;20044;-76
2021/09/27 13:03:36;;;;;;;11.50;5.28;;;;;;;;;;10442221;28;20041;-78
2021/09/27 13:08:45;;;;;;;6.75;4.90;;;;;;;;;;10448526;28;20052;-79
2021/09/27 13:13:58;;;;;;;6.37;4.70;;;;;;;;;;10445028;28;20523;-80
2021/09/27 13:19:02;;;;;;;6.88;4.80;;;;;;;;;;10445601;28;20329;-78
2021/09/27 13:24:07;;;;;;;7.25;5.25;;;;;;;;;;10451331;28;20052;-78
2021/09/27 13:29:27;;;;;;;8.68;5.00;;;;;;;;;;10450194;28;20272;-77
2021/09/27 13:34:37;;;;;;;7.80;5.22;;;;;;;;;;10448623;28;20044;-77
2021/09/27 13:39:40;;;;;;;6.73;4.17;;;;;;;;;;10440704;28;20535;-77
2021/09/27 13:44:51;;;;;;;4.72;3.53;;;;;;;;;;10447273;28;20044;-78
2021/09/27 13:49:54;;;;;;;6.47;4.40;;;;;;;;;;10448201;28;20052;-78
2021/09/27 13:54:58;;;;;;;6.65;4.53;;;;;;;;;;10443016;28;20053;-78
2021/09/27 14:00:04;;;;;;;6.70;3.88;;;;;;;;;;10440960;28;20056;-77
2021/09/27 14:05:08;;;;;;;7.03;4.68;;;;;;;;;;10439196;28;20041;-77
2021/09/27 14:10:11;;;;;;;7.03;4.72;;;;;;;;;;10446493;28;20135;-79
2021/09/27 14:15:15;;;;;;;7.07;4.53;;;;;;;;;;10441491;28;20037;-78
2021/09/27 14:20:18;;;;;;;9.07;5.38;;;;;;;;;;10435530;28;20049;-78
2021/09/27 14:25:22;;;;;;;6.93;4.45;;;;;;;;;;10438212;28;20156;-78
2021/09/27 14:30:27;;;;;;;8.75;5.65;;;;;;;;;;10442820;28;20041;-77
2021/09/27 14:35:29;;;;;;;7.40;4.10;;;;;;;;;;10433382;28;20186;-78
2021/09/27 14:40:33;;;;;;;8.57;4.40;;;;;;;;;;10434905;28;20132;-77
2021/09/27 14:45:38;;;;;;;7.00;4.20;;;;;;;;;;10430759;28;20067;-78
2021/09/27 14:50:44;;;;;;;7.47;4.32;;;;;;;;;;10433278;28;20064;-78
2021/09/27 14:55:48;;;;;;;8.82;5.68;;;;;;;;;;10432083;28;20033;-77
2021/09/27 15:00:53;;;;;;;9.32;4.55;;;;;;;;;;10441813;28;20053;-77
2021/09/27 15:05:56;;;;;;;9.60;4.97;;;;;;;;;;10436744;28;20464;-76
2021/09/27 15:11:03;;;;;;;10.50;5.63;;;;;;;;;;10439383;28;20056;-75
2021/09/27 15:16:08;;;;;;;9.23;4.70;;;;;;;;;;10440549;28;20470;-76
2021/09/27 15:21:11;;;;;;;11.60;5.55;;;;;;;;;;10438899;28;20049;-76
2021/09/27 15:26:14;;;;;;;11.00;4.22;;;;;;;;;;10442244;28;20536;-76
2021/09/27 15:31:36;;;;;;;7.38;4.28;;;;;;;;;;10441559;28;20182;-78
2021/09/27 15:36:40;;;;;;;9.07;4.53;;;;;;;;;;10440012;28;20272;-77
2021/09/27 15:41:43;;;;;;;9.68;4.85;;;;;;;;;;10438391;28;20044;-77
2021/09/27 15:46:47;;;;;;;7.57;4.20;;;;;;;;;;10438822;28;20048;-78
2021/09/27 15:51:50;;;;;;;8.27;4.50;;;;;;;;;;10440082;28;20120;-75
2021/09/27 15:56:53;;;;;;;12.02;4.88;;;;;;;;;;10447354;28;20112;-76
2021/09/27 16:01:56;;;;;;;;;;;;;;;;;;10441480;28;20080;-77
2021/09/27 16:07:00;;;;;;;9.83;5.30;;;;;;;;;;10444396;28;19978;-76
2021/09/27 16:12:04;;;;;;;8.60;4.53;;;;;;;;;;10438718;28;20135;-76
2021/09/27 16:17:07;;;;;;;9.68;5.65;;;;;;;;;;10446009;28;20045;-77
2021/09/27 16:22:11;;;;;;;10.25;4.93;;;;;;;;;;10438287;28;20563;-72
2021/09/27 16:27:14;;;;;;;9.77;5.35;;;;;;;;;;10433173;28;20163;-72
2021/09/27 16:32:17;;;;;;;9.52;5.13;;;;;;;;;;10440196;28;20033;-71
2021/09/27 16:37:19;;;;;;;;;;;;;;;;;;10441053;28;20041;-72
2021/09/27 16:42:25;;;;;;;10.93;5.70;;;;;;;;;;10438093;28;19979;-72
2021/09/27 16:47:28;;;;;;;12.40;5.90;;;;;;;;;;10444844;28;20041;-74
2021/09/27 16:52:31;;;;;;;11.27;6.00;;;;;;;;;;10440177;28;20056;-74
2021/09/27 16:57:35;;;;;;;11.23;5.60;;;;;;;;;;10438611;28;20521;-73
2021/09/27 17:02:38;;;;;;;14.02;7.53;;;;;;;;;;10442999;28;20406;-73
2021/09/27 17:07:41;;;;;;;20.55;9.43;;;;;;;;;;10442181;28;20567;-73
2021/09/27 17:12:45;;;;;;;18.13;10.20;;;;;;;;;;10442262;28;20175;-73
2021/09/27 17:17:54;;;;;;;11.75;6.50;;;;;;;;;;10430807;28;20489;-73
2021/09/27 17:22:59;;;;;;;16.83;9.23;;;;;;;;;;10421027;28;20072;-73
2021/09/27 17:28:06;;;;;;;16.10;7.32;;;;;;;;;;10424522;28;20413;-73
2021/09/27 17:33:09;;;;;;;14.63;7.10;;;;;;;;;;10420243;28;20056;-73
2021/09/27 17:38:12;;;;;;;24.33;11.30;;;;;;;;;;10440788;28;20045;-73
2021/09/27 17:43:16;;;;;;;19.10;9.77;;;;;;;;;;10432724;28;20071;-73
2021/09/27 17:48:19;;;;;;;24.77;12.65;;;;;;;;;;10436177;28;20061;-72
2021/09/27 17:53:22;;;;;;;25.42;10.90;;;;;;;;;;10424586;28;20052;-74
2021/09/27 17:58:27;;;;;;;15.68;7.30;;;;;;;;;;10429131;28;20098;-72
2021/09/27 18:03:30;;;;;;;18.63;10.15;;;;;;;;;;10433705;28;20445;-73
2021/09/27 18:08:32;;;;;;;17.17;9.25;;;;;;;;;;10437242;28;20120;-73
2021/09/27 18:13:37;;;;;;;18.38;8.27;;;;;;;;;;10434202;28;20266;-73
2021/09/27 18:18:41;;;;;;;20.48;10.73;;;;;;;;;;10439019;28;20037;-73
2021/09/27 18:23:44;;;;;;;34.05;16.77;;;;;;;;;;10435148;28;20059;-73
2021/09/27 18:28:48;;;;;;;15.77;7.57;;;;;;;;;;10437685;28;20045;-72
2021/09/27 18:33:51;;;;;;;15.60;7.15;;;;;;;;;;10425078;28;20102;-72
2021/09/27 18:38:54;;;;;;;16.85;8.18;;;;;;;;;;10429410;28;20552;-71
2021/09/27 18:43:58;;;;;;;18.10;8.77;;;;;;;;;;10441612;28;20052;-74
2021/09/27 18:49:01;;;;;;;17.67;9.25;;;;;;;;;;10441861;28;20571;-74
2021/09/27 18:54:04;;;;;;;16.27;8.65;;;;;;;;;;10440752;28;20486;-75
2021/09/27 18:59:23;;;;;;;22.08;10.40;;;;;;;;;;10435903;28;20055;-74
2021/09/27 19:04:26;;;;;;;18.08;8.98;;;;;;;;;;10441924;28;20037;-75
2021/09/27 19:09:29;;;;;;;17.25;8.68;;;;;;;;;;10436107;28;20160;-76
2021/09/27 19:14:33;;;;;;;15.73;8.65;;;;;;;;;;10438111;28;20405;-76
2021/09/27 19:19:36;;;;;;;25.30;11.25;;;;;;;;;;10437100;28;20045;-75
2021/09/27 19:24:38;;;;;;;21.52;8.70;;;;;;;;;;10437651;28;20080;-75
2021/09/27 19:29:43;;;;;;;20.30;9.48;;;;;;;;;;10434204;28;20144;-75
2021/09/27 19:34:48;;;;;;;20.05;9.70;;;;;;;;;;10439036;28;20041;-75
2021/09/27 19:39:51;;;;;;;17.27;8.50;;;;;;;;;;10436565;28;20069;-75
2021/09/27 19:44:57;;;;;;;17.08;9.05;;;;;;;;;;10444927;28;20461;-75
2021/09/27 19:50:00;;;;;;;16.45;8.15;;;;;;;;;;10443692;28;20122;-76
2021/09/27 19:55:02;;;;;;;14.68;7.90;;;;;;;;;;10446316;28;20110;-73
2021/09/27 20:00:08;;;;;;;18.85;8.45;;;;;;;;;;10476428;28;20076;-75
2021/09/27 20:05:15;;;;;;;20.00;8.15;;;;;;;;;;10471947;28;20041;-75
2021/09/27 20:10:19;;;;;;;16.58;7.50;;;;;;;;;;10456233;28;20053;-72
2021/09/27 20:15:24;;;;;;;13.75;6.95;;;;;;;;;;10444214;28;20033;-75
2021/09/27 20:20:28;;;;;;;22.35;10.98;;;;;;;;;;10441678;28;20045;-75
2021/09/27 20:25:31;;;;;;;14.20;8.05;;;;;;;;;;10444261;28;20536;-72
2021/09/27 20:30:34;;;;;;;;;;;;;;;;;;10442375;28;20063;-72
2021/09/27 20:35:38;;;;;;;19.45;9.68;;;;;;;;;;10442651;28;19964;-72
2021/09/27 20:40:41;;;;;;;18.13;9.02;;;;;;;;;;10443023;28;20059;-72
2021/09/27 20:45:45;;;;;;;16.35;8.60;;;;;;;;;;10439398;28;20064;-72
2021/09/27 20:50:50;;;;;;;18.73;9.90;;;;;;;;;;10439316;28;20045;-72
2021/09/27 20:55:53;;;;;;;12.38;6.47;;;;;;;;;;10443694;28;20045;-71
2021/09/27 21:00:56;;;;;;;13.95;6.90;;;;;;;;;;10440847;28;20099;-73
2021/09/27 21:06:01;;;;;;;12.52;6.80;;;;;;;;;;10441121;28;20453;-72
2021/09/27 21:11:05;;;;;;;13.98;7.05;;;;;;;;;;10434978;28;20232;-71
2021/09/27 21:16:08;;;;;;;13.60;6.00;;;;;;;;;;10438512;28;20127;-71
2021/09/27 21:21:12;;;;;;;13.60;6.50;;;;;;;;;;10437659;28;20047;-71
2021/09/27 21:26:15;;;;;;;14.05;6.40;;;;;;;;;;10435244;28;20044;-71
2021/09/27 21:31:18;;;;;;;12.20;6.50;;;;;;;;;;10438126;28;20190;-71
2021/09/27 21:36:22;;;;;;;11.40;6.13;;;;;;;;;;10435838;28;20041;-71
2021/09/27 21:41:25;;;;;;;13.85;6.45;;;;;;;;;;10436073;28;20048;-71
2021/09/27 21:46:28;;;;;;;14.93;6.97;;;;;;;;;;10443032;28;20516;-69
2021/09/27 21:51:32;;;;;;;12.48;6.35;;;;;;;;;;10437049;28;20409;-72
2021/09/27 21:56:55;;;;;;;11.82;6.28;;;;;;;;;;10434640;28;20056;-71
2021/09/27 22:02:14;;;;;;;15.75;5.90;;;;;;;;;;10440028;28;20072;-72
2021/09/27 22:07:40;;;;;;;12.73;5.95;;;;;;;;;;10428258;28;20164;-72
2021/09/27 22:13:03;;;;;;;10.52;5.07;;;;;;;;;;10417803;28;20053;-71
2021/09/27 22:18:26;;;;;;;11.02;4.65;;;;;;;;;;10417013;28;20041;-70
2021/09/27 22:23:50;;;;;;;14.88;6.90;;;;;;;;;;10423330;28;20051;-71
2021/09/27 22:29:13;;;;;;;15.00;7.20;;;;;;;;;;10414645;28;20084;-72
2021/09/27 22:34:16;;;;;;;15.77;6.82;;;;;;;;;;10419468;28;20509;-71
2021/09/27 22:39:20;;;;;;;13.52;6.45;;;;;;;;;;10439382;28;20122;-72
2021/09/27 22:44:23;;;;;;;13.38;6.25;;;;;;;;;;10438508;28;20040;-70
2021/09/27 22:49:26;;;;;;;16.60;7.55;;;;;;;;;;10433569;28;20040;-72
2021/09/27 22:54:31;;;;;;;17.67;7.60;;;;;;;;;;10430166;28;20075;-73
2021/09/27 22:59:34;;;;;;;13.18;6.03;;;;;;;;;;10439705;28;20299;-72
2021/09/27 23:04:36;;;;;;;13.15;6.18;;;;;;;;;;10440500;28;20102;-71
2021/09/27 23:09:41;;;;;;;15.60;7.37;;;;;;;;;;10435951;28;20416;-72
2021/09/27 23:14:44;;;;;;;14.00;6.47;;;;;;;;;;10435424;28;20053;-72
2021/09/27 23:19:47;;;;;;;15.35;7.28;;;;;;;;;;10438026;28;20112;-72
2021/09/27 23:24:51;;;;;;;14.20;6.77;;;;;;;;;;10445193;28;20041;-72
2021/09/27 23:29:54;;;;;;;13.95;5.68;;;;;;;;;;10446938;28;20033;-72
2021/09/27 23:34:56;;;;;;;14.20;6.10;;;;;;;;;;10441164;28;20045;-72
2021/09/27 23:40:01;;;;;;;15.43;7.23;;;;;;;;;;10435790;28;20461;-72
2021/09/27 23:45:04;;;;;;;17.35;7.63;;;;;;;;;;10445431;28;20048;-69
2021/09/27 23:50:07;;;;;;;15.63;6.70;;;;;;;;;;10441195;28;20479;-68
2021/09/27 23:55:12;;;;;;;15.90;7.68;;;;;;;;;;10412894;28;20130;-73
